sensor_id;sensor_type;location;lat;lon;timestamp;P1;durP1;ratioP1;P2;durP2;ratioP2
21175;SDS011;10746;50.178;8.186;2022-08-19T00:01:12;30.27;;;18.80;;
21175;SDS011;10746;50.178;8.186;2022-08-19T00:03:40;30.25;;;19.35;;
21175;SDS011;10746;50.178;8.186;2022-08-19T00:06:06;29.48;;;18.50;;
21175;SDS011;10746;50.178;8.186;2022-08-19T00:08:34;28.85;;;19.23;;
21175;SDS011;10746;50.178;8.186;2022-08-19T00:11:01;28.52;;;18.40;;
21175;SDS011;10746;50.178;8.186;2022-08-19T00:13:28;33.17;;;19.02;;
21175;SDS011;10746;50.178;8.186;2022-08-19T00:15:55;29.95;;;18.65;;
21175;SDS011;10746;50.178;8.186;2022-08-19T00:18:23;30.08;;;19.10;;
21175;SDS011;10746;50.178;8.186;2022-08-19T00:20:52;31.08;;;19.75;;
21175;SDS011;10746;50.178;8.186;2022-08-19T00:23:18;32.15;;;19.40;;
21175;SDS011;10746;50.178;8.186;2022-08-19T00:25:45;31.05;;;19.60;;
21175;SDS011;10746;50.178;8.186;2022-08-19T00:28:13;35.72;;;19.95;;
21175;SDS011;10746;50.178;8.186;2022-08-19T00:30:40;34.53;;;20.40;;
21175;SDS011;10746;50.178;8.186;2022-08-19T00:33:07;32.83;;;19.25;;
21175;SDS011;10746;50.178;8.186;2022-08-19T00:35:34;33.05;;;19.60;;
21175;SDS011;10746;50.178;8.186;2022-08-19T00:38:04;32.47;;;19.40;;
21175;SDS011;10746;50.178;8.186;2022-08-19T00:40:31;31.13;;;19.25;;
21175;SDS011;10746;50.178;8.186;2022-08-19T00:42:58;34.28;;;20.50;;
21175;SDS011;10746;50.178;8.186;2022-08-19T00:45:26;32.28;;;20.77;;
21175;SDS011;10746;50.178;8.186;2022-08-19T00:47:55;33.00;;;19.60;;
21175;SDS011;10746;50.178;8.186;2022-08-19T00:50:22;33.13;;;19.25;;
21175;SDS011;10746;50.178;8.186;2022-08-19T00:52:49;33.40;;;20.20;;
21175;SDS011;10746;50.178;8.186;2022-08-19T00:55:19;31.88;;;19.63;;
21175;SDS011;10746;50.178;8.186;2022-08-19T00:57:49;33.47;;;20.48;;
21175;SDS011;10746;50.178;8.186;2022-08-19T01:00:19;29.55;;;19.23;;
21175;SDS011;10746;50.178;8.186;2022-08-19T01:02:47;31.75;;;19.00;;
21175;SDS011;10746;50.178;8.186;2022-08-19T01:05:15;30.52;;;19.80;;
21175;SDS011;10746;50.178;8.186;2022-08-19T01:07:45;33.63;;;20.02;;
21175;SDS011;10746;50.178;8.186;2022-08-19T01:10:14;35.53;;;20.38;;
21175;SDS011;10746;50.178;8.186;2022-08-19T01:12:46;32.92;;;20.70;;
21175;SDS011;10746;50.178;8.186;2022-08-19T01:15:14;33.75;;;20.08;;
21175;SDS011;10746;50.178;8.186;2022-08-19T01:17:42;37.28;;;22.65;;
21175;SDS011;10746;50.178;8.186;2022-08-19T01:20:12;36.20;;;22.00;;
21175;SDS011;10746;50.178;8.186;2022-08-19T01:22:42;37.47;;;22.85;;
21175;SDS011;10746;50.178;8.186;2022-08-19T01:25:10;37.72;;;22.85;;
21175;SDS011;10746;50.178;8.186;2022-08-19T01:27:39;38.03;;;22.65;;
21175;SDS011;10746;50.178;8.186;2022-08-19T01:30:08;36.95;;;22.58;;
21175;SDS011;10746;50.178;8.186;2022-08-19T01:32:36;35.22;;;21.80;;
21175;SDS011;10746;50.178;8.186;2022-08-19T01:35:03;35.25;;;20.90;;
21175;SDS011;10746;50.178;8.186;2022-08-19T01:37:40;33.20;;;20.92;;
21175;SDS011;10746;50.178;8.186;2022-08-19T01:40:10;33.00;;;20.70;;
21175;SDS011;10746;50.178;8.186;2022-08-19T01:42:37;33.03;;;19.50;;
21175;SDS011;10746;50.178;8.186;2022-08-19T01:45:04;30.30;;;18.77;;
21175;SDS011;10746;50.178;8.186;2022-08-19T01:47:33;31.40;;;19.52;;
21175;SDS011;10746;50.178;8.186;2022-08-19T01:50:00;32.85;;;19.30;;
21175;SDS011;10746;50.178;8.186;2022-08-19T01:52:27;31.23;;;19.85;;
21175;SDS011;10746;50.178;8.186;2022-08-19T01:54:55;29.27;;;19.15;;
21175;SDS011;10746;50.178;8.186;2022-08-19T01:57:22;32.90;;;20.38;;
21175;SDS011;10746;50.178;8.186;2022-08-19T01:59:49;31.40;;;18.55;;
21175;SDS011;10746;50.178;8.186;2022-08-19T02:02:15;32.08;;;18.73;;
21175;SDS011;10746;50.178;8.186;2022-08-19T02:04:42;25.55;;;18.05;;
21175;SDS011;10746;50.178;8.186;2022-08-19T02:07:10;28.10;;;18.63;;
21175;SDS011;10746;50.178;8.186;2022-08-19T02:09:37;30.08;;;17.75;;
21175;SDS011;10746;50.178;8.186;2022-08-19T02:12:06;26.75;;;17.85;;
21175;SDS011;10746;50.178;8.186;2022-08-19T02:14:33;28.27;;;18.65;;
21175;SDS011;10746;50.178;8.186;2022-08-19T02:17:00;30.02;;;17.65;;
21175;SDS011;10746;50.178;8.186;2022-08-19T02:19:27;25.83;;;17.35;;
21175;SDS011;10746;50.178;8.186;2022-08-19T02:21:54;29.33;;;18.38;;
21175;SDS011;10746;50.178;8.186;2022-08-19T02:24:20;29.17;;;18.27;;
21175;SDS011;10746;50.178;8.186;2022-08-19T02:26:47;31.08;;;19.88;;
21175;SDS011;10746;50.178;8.186;2022-08-19T02:29:15;28.27;;;18.80;;
21175;SDS011;10746;50.178;8.186;2022-08-19T02:31:42;29.70;;;18.80;;
21175;SDS011;10746;50.178;8.186;2022-08-19T02:34:08;29.73;;;18.67;;
21175;SDS011;10746;50.178;8.186;2022-08-19T02:36:35;32.42;;;19.20;;
21175;SDS011;10746;50.178;8.186;2022-08-19T02:39:02;31.33;;;18.80;;
21175;SDS011;10746;50.178;8.186;2022-08-19T02:41:30;28.90;;;18.17;;
21175;SDS011;10746;50.178;8.186;2022-08-19T02:43:59;26.92;;;18.42;;
21175;SDS011;10746;50.178;8.186;2022-08-19T02:46:29;29.52;;;18.67;;
21175;SDS011;10746;50.178;8.186;2022-08-19T02:48:58;29.63;;;18.77;;
21175;SDS011;10746;50.178;8.186;2022-08-19T02:51:28;26.17;;;18.40;;
21175;SDS011;10746;50.178;8.186;2022-08-19T02:53:56;27.50;;;18.48;;
21175;SDS011;10746;50.178;8.186;2022-08-19T02:56:23;30.77;;;18.92;;
21175;SDS011;10746;50.178;8.186;2022-08-19T02:58:52;33.08;;;19.08;;
21175;SDS011;10746;50.178;8.186;2022-08-19T03:01:19;30.60;;;18.90;;
21175;SDS011;10746;50.178;8.186;2022-08-19T03:03:49;29.67;;;18.10;;
21175;SDS011;10746;50.178;8.186;2022-08-19T03:06:16;27.52;;;18.02;;
21175;SDS011;10746;50.178;8.186;2022-08-19T03:08:44;27.52;;;17.65;;
21175;SDS011;10746;50.178;8.186;2022-08-19T03:11:14;30.70;;;18.40;;
21175;SDS011;10746;50.178;8.186;2022-08-19T03:13:42;25.58;;;17.48;;
21175;SDS011;10746;50.178;8.186;2022-08-19T03:16:09;23.48;;;16.63;;
21175;SDS011;10746;50.178;8.186;2022-08-19T03:18:36;24.20;;;16.60;;
21175;SDS011;10746;50.178;8.186;2022-08-19T03:21:05;25.00;;;17.02;;
21175;SDS011;10746;50.178;8.186;2022-08-19T03:23:31;28.20;;;18.52;;
21175;SDS011;10746;50.178;8.186;2022-08-19T03:25:58;26.23;;;16.95;;
21175;SDS011;10746;50.178;8.186;2022-08-19T03:28:29;26.52;;;17.38;;
21175;SDS011;10746;50.178;8.186;2022-08-19T03:30:57;25.42;;;17.77;;
21175;SDS011;10746;50.178;8.186;2022-08-19T03:33:25;26.05;;;17.55;;
21175;SDS011;10746;50.178;8.186;2022-08-19T03:35:59;26.90;;;17.90;;
21175;SDS011;10746;50.178;8.186;2022-08-19T03:38:28;25.88;;;16.67;;
21175;SDS011;10746;50.178;8.186;2022-08-19T03:40:57;27.02;;;18.08;;
21175;SDS011;10746;50.178;8.186;2022-08-19T03:43:23;25.63;;;17.73;;
21175;SDS011;10746;50.178;8.186;2022-08-19T03:45:58;28.80;;;17.83;;
21175;SDS011;10746;50.178;8.186;2022-08-19T03:48:26;27.98;;;18.50;;
21175;SDS011;10746;50.178;8.186;2022-08-19T03:50:52;29.83;;;17.85;;
21175;SDS011;10746;50.178;8.186;2022-08-19T03:53:19;26.38;;;17.95;;
21175;SDS011;10746;50.178;8.186;2022-08-19T03:55:47;28.83;;;19.60;;
21175;SDS011;10746;50.178;8.186;2022-08-19T03:58:13;30.80;;;19.35;;
21175;SDS011;10746;50.178;8.186;2022-08-19T04:00:41;29.98;;;17.73;;
21175;SDS011;10746;50.178;8.186;2022-08-19T04:03:08;34.42;;;19.33;;
21175;SDS011;10746;50.178;8.186;2022-08-19T04:05:35;33.03;;;19.10;;
21175;SDS011;10746;50.178;8.186;2022-08-19T04:08:02;31.27;;;19.45;;
21175;SDS011;10746;50.178;8.186;2022-08-19T04:10:30;31.00;;;19.50;;
21175;SDS011;10746;50.178;8.186;2022-08-19T04:12:58;28.48;;;19.08;;
21175;SDS011;10746;50.178;8.186;2022-08-19T04:15:25;33.88;;;18.60;;
21175;SDS011;10746;50.178;8.186;2022-08-19T04:17:53;30.73;;;19.88;;
21175;SDS011;10746;50.178;8.186;2022-08-19T04:20:20;28.52;;;18.17;;
21175;SDS011;10746;50.178;8.186;2022-08-19T04:22:47;28.42;;;17.05;;
21175;SDS011;10746;50.178;8.186;2022-08-19T04:25:13;30.00;;;18.90;;
21175;SDS011;10746;50.178;8.186;2022-08-19T04:27:40;30.85;;;18.00;;
21175;SDS011;10746;50.178;8.186;2022-08-19T04:30:13;30.73;;;18.70;;
21175;SDS011;10746;50.178;8.186;2022-08-19T04:32:40;28.80;;;18.25;;
21175;SDS011;10746;50.178;8.186;2022-08-19T04:35:08;29.20;;;18.23;;
21175;SDS011;10746;50.178;8.186;2022-08-19T04:37:35;29.48;;;18.67;;
21175;SDS011;10746;50.178;8.186;2022-08-19T04:40:05;34.55;;;20.98;;
21175;SDS011;10746;50.178;8.186;2022-08-19T04:42:50;30.15;;;20.00;;
21175;SDS011;10746;50.178;8.186;2022-08-19T04:45:19;39.30;;;23.92;;
21175;SDS011;10746;50.178;8.186;2022-08-19T04:47:46;38.88;;;21.60;;
21175;SDS011;10746;50.178;8.186;2022-08-19T04:50:13;31.15;;;20.73;;
21175;SDS011;10746;50.178;8.186;2022-08-19T04:52:40;30.73;;;19.70;;
21175;SDS011;10746;50.178;8.186;2022-08-19T04:55:08;32.67;;;19.52;;
21175;SDS011;10746;50.178;8.186;2022-08-19T04:57:35;28.98;;;18.73;;
21175;SDS011;10746;50.178;8.186;2022-08-19T05:00:04;29.48;;;18.45;;
21175;SDS011;10746;50.178;8.186;2022-08-19T05:02:33;32.08;;;20.52;;
21175;SDS011;10746;50.178;8.186;2022-08-19T05:05:00;31.38;;;18.83;;
21175;SDS011;10746;50.178;8.186;2022-08-19T05:07:28;29.17;;;19.45;;
21175;SDS011;10746;50.178;8.186;2022-08-19T05:09:55;30.23;;;19.52;;
21175;SDS011;10746;50.178;8.186;2022-08-19T05:12:22;36.28;;;20.33;;
21175;SDS011;10746;50.178;8.186;2022-08-19T05:14:49;30.58;;;19.38;;
21175;SDS011;10746;50.178;8.186;2022-08-19T05:17:16;27.42;;;18.10;;
21175;SDS011;10746;50.178;8.186;2022-08-19T05:19:44;27.55;;;18.58;;
21175;SDS011;10746;50.178;8.186;2022-08-19T05:22:28;33.58;;;19.13;;
21175;SDS011;10746;50.178;8.186;2022-08-19T05:24:59;32.15;;;19.63;;
21175;SDS011;10746;50.178;8.186;2022-08-19T05:27:31;27.83;;;18.90;;
21175;SDS011;10746;50.178;8.186;2022-08-19T05:29:58;30.95;;;18.52;;
21175;SDS011;10746;50.178;8.186;2022-08-19T05:32:25;30.67;;;19.10;;
21175;SDS011;10746;50.178;8.186;2022-08-19T05:34:53;27.85;;;18.60;;
21175;SDS011;10746;50.178;8.186;2022-08-19T05:37:20;29.30;;;17.23;;
21175;SDS011;10746;50.178;8.186;2022-08-19T05:39:47;27.13;;;17.42;;
21175;SDS011;10746;50.178;8.186;2022-08-19T05:42:14;25.90;;;16.20;;
21175;SDS011;10746;50.178;8.186;2022-08-19T05:44:42;25.33;;;16.70;;
21175;SDS011;10746;50.178;8.186;2022-08-19T05:47:11;25.67;;;17.02;;
21175;SDS011;10746;50.178;8.186;2022-08-19T05:49:39;27.05;;;17.02;;
21175;SDS011;10746;50.178;8.186;2022-08-19T05:52:09;25.42;;;16.35;;
21175;SDS011;10746;50.178;8.186;2022-08-19T05:54:37;25.38;;;17.08;;
21175;SDS011;10746;50.178;8.186;2022-08-19T05:57:07;25.77;;;17.60;;
21175;SDS011;10746;50.178;8.186;2022-08-19T05:59:34;24.02;;;16.00;;
21175;SDS011;10746;50.178;8.186;2022-08-19T06:02:02;26.70;;;16.42;;
21175;SDS011;10746;50.178;8.186;2022-08-19T06:04:29;26.55;;;16.67;;
21175;SDS011;10746;50.178;8.186;2022-08-19T06:06:56;23.02;;;15.68;;
21175;SDS011;10746;50.178;8.186;2022-08-19T06:09:24;26.63;;;16.80;;
21175;SDS011;10746;50.178;8.186;2022-08-19T06:11:52;22.90;;;15.68;;
21175;SDS011;10746;50.178;8.186;2022-08-19T06:14:21;22.83;;;15.75;;
21175;SDS011;10746;50.178;8.186;2022-08-19T06:16:49;25.17;;;16.02;;
21175;SDS011;10746;50.178;8.186;2022-08-19T06:19:17;20.30;;;15.27;;
21175;SDS011;10746;50.178;8.186;2022-08-19T06:21:47;24.50;;;15.30;;
21175;SDS011;10746;50.178;8.186;2022-08-19T06:24:16;22.27;;;14.27;;
21175;SDS011;10746;50.178;8.186;2022-08-19T06:26:47;21.85;;;14.23;;
21175;SDS011;10746;50.178;8.186;2022-08-19T06:29:16;23.33;;;13.82;;
21175;SDS011;10746;50.178;8.186;2022-08-19T06:31:44;19.13;;;14.43;;
21175;SDS011;10746;50.178;8.186;2022-08-19T06:34:14;22.98;;;13.52;;
21175;SDS011;10746;50.178;8.186;2022-08-19T06:36:42;22.67;;;14.05;;
21175;SDS011;10746;50.178;8.186;2022-08-19T06:39:11;19.67;;;12.35;;
21175;SDS011;10746;50.178;8.186;2022-08-19T06:41:40;19.55;;;13.10;;
21175;SDS011;10746;50.178;8.186;2022-08-19T06:44:09;18.58;;;12.85;;
21175;SDS011;10746;50.178;8.186;2022-08-19T06:46:37;17.05;;;11.95;;
21175;SDS011;10746;50.178;8.186;2022-08-19T06:49:05;20.42;;;12.25;;
21175;SDS011;10746;50.178;8.186;2022-08-19T06:51:36;17.08;;;11.95;;
21175;SDS011;10746;50.178;8.186;2022-08-19T06:54:04;17.08;;;12.65;;
21175;SDS011;10746;50.178;8.186;2022-08-19T06:56:31;16.50;;;10.68;;
21175;SDS011;10746;50.178;8.186;2022-08-19T06:58:59;17.48;;;11.95;;
21175;SDS011;10746;50.178;8.186;2022-08-19T07:01:28;16.58;;;10.98;;
21175;SDS011;10746;50.178;8.186;2022-08-19T07:03:55;17.35;;;11.10;;
21175;SDS011;10746;50.178;8.186;2022-08-19T07:06:22;16.65;;;10.23;;
21175;SDS011;10746;50.178;8.186;2022-08-19T07:08:48;15.50;;;10.23;;
21175;SDS011;10746;50.178;8.186;2022-08-19T07:11:16;15.65;;;10.13;;
21175;SDS011;10746;50.178;8.186;2022-08-19T07:13:45;14.90;;;9.35;;
21175;SDS011;10746;50.178;8.186;2022-08-19T07:16:14;16.00;;;10.82;;
21175;SDS011;10746;50.178;8.186;2022-08-19T07:18:43;15.52;;;9.77;;
21175;SDS011;10746;50.178;8.186;2022-08-19T07:21:11;12.30;;;9.60;;
21175;SDS011;10746;50.178;8.186;2022-08-19T07:23:40;14.68;;;9.63;;
21175;SDS011;10746;50.178;8.186;2022-08-19T07:26:07;15.20;;;9.23;;
21175;SDS011;10746;50.178;8.186;2022-08-19T07:28:36;13.18;;;9.82;;
21175;SDS011;10746;50.178;8.186;2022-08-19T07:31:04;12.23;;;9.55;;
21175;SDS011;10746;50.178;8.186;2022-08-19T07:33:31;14.15;;;9.27;;
21175;SDS011;10746;50.178;8.186;2022-08-19T07:36:02;15.00;;;10.82;;
21175;SDS011;10746;50.178;8.186;2022-08-19T07:38:31;15.90;;;11.18;;
21175;SDS011;10746;50.178;8.186;2022-08-19T07:40:58;11.23;;;8.95;;
21175;SDS011;10746;50.178;8.186;2022-08-19T07:43:25;10.85;;;9.15;;
21175;SDS011;10746;50.178;8.186;2022-08-19T07:45:52;14.77;;;10.18;;
21175;SDS011;10746;50.178;8.186;2022-08-19T07:48:22;19.08;;;11.85;;
21175;SDS011;10746;50.178;8.186;2022-08-19T07:50:50;21.17;;;11.77;;
21175;SDS011;10746;50.178;8.186;2022-08-19T07:53:19;19.08;;;12.68;;
21175;SDS011;10746;50.178;8.186;2022-08-19T07:55:46;15.27;;;11.48;;
21175;SDS011;10746;50.178;8.186;2022-08-19T07:58:13;19.70;;;12.57;;
21175;SDS011;10746;50.178;8.186;2022-08-19T08:00:42;24.60;;;14.10;;
21175;SDS011;10746;50.178;8.186;2022-08-19T08:03:11;20.52;;;14.55;;
21175;SDS011;10746;50.178;8.186;2022-08-19T08:05:38;25.00;;;14.57;;
21175;SDS011;10746;50.178;8.186;2022-08-19T08:08:24;26.90;;;16.35;;
21175;SDS011;10746;50.178;8.186;2022-08-19T08:11:08;22.58;;;14.70;;
21175;SDS011;10746;50.178;8.186;2022-08-19T08:13:35;21.23;;;14.32;;
21175;SDS011;10746;50.178;8.186;2022-08-19T08:16:02;19.15;;;13.07;;
21175;SDS011;10746;50.178;8.186;2022-08-19T08:18:29;16.73;;;12.65;;
21175;SDS011;10746;50.178;8.186;2022-08-19T08:20:56;20.42;;;13.27;;
21175;SDS011;10746;50.178;8.186;2022-08-19T08:23:25;16.05;;;11.23;;
21175;SDS011;10746;50.178;8.186;2022-08-19T08:25:54;18.60;;;13.02;;
21175;SDS011;10746;50.178;8.186;2022-08-19T08:28:23;16.13;;;11.88;;
21175;SDS011;10746;50.178;8.186;2022-08-19T08:30:50;19.15;;;12.63;;
21175;SDS011;10746;50.178;8.186;2022-08-19T08:33:17;21.83;;;13.10;;
21175;SDS011;10746;50.178;8.186;2022-08-19T08:35:45;21.40;;;14.27;;
21175;SDS011;10746;50.178;8.186;2022-08-19T08:38:12;20.27;;;15.15;;
21175;SDS011;10746;50.178;8.186;2022-08-19T08:40:44;19.45;;;14.20;;
21175;SDS011;10746;50.178;8.186;2022-08-19T08:43:19;25.52;;;17.90;;
21175;SDS011;10746;50.178;8.186;2022-08-19T08:45:52;25.15;;;16.83;;
21175;SDS011;10746;50.178;8.186;2022-08-19T08:48:27;24.90;;;15.93;;
21175;SDS011;10746;50.178;8.186;2022-08-19T08:51:02;27.27;;;19.15;;
21175;SDS011;10746;50.178;8.186;2022-08-19T08:53:33;30.15;;;21.02;;
21175;SDS011;10746;50.178;8.186;2022-08-19T08:56:03;25.15;;;17.85;;
21175;SDS011;10746;50.178;8.186;2022-08-19T08:58:42;24.85;;;17.00;;
21175;SDS011;10746;50.178;8.186;2022-08-19T09:01:13;23.67;;;16.65;;
21175;SDS011;10746;50.178;8.186;2022-08-19T09:03:40;35.83;;;21.00;;
21175;SDS011;10746;50.178;8.186;2022-08-19T09:06:12;27.65;;;18.85;;
21175;SDS011;10746;50.178;8.186;2022-08-19T09:08:47;28.05;;;19.27;;
21175;SDS011;10746;50.178;8.186;2022-08-19T09:11:33;30.00;;;18.85;;
21175;SDS011;10746;50.178;8.186;2022-08-19T09:14:15;29.35;;;19.55;;
21175;SDS011;10746;50.178;8.186;2022-08-19T09:16:58;33.45;;;20.02;;
21175;SDS011;10746;50.178;8.186;2022-08-19T09:19:28;28.05;;;18.02;;
21175;SDS011;10746;50.178;8.186;2022-08-19T09:21:55;28.65;;;19.13;;
21175;SDS011;10746;50.178;8.186;2022-08-19T09:24:22;28.17;;;18.67;;
21175;SDS011;10746;50.178;8.186;2022-08-19T09:26:50;26.27;;;18.35;;
21175;SDS011;10746;50.178;8.186;2022-08-19T09:29:16;27.08;;;19.23;;
21175;SDS011;10746;50.178;8.186;2022-08-19T09:31:43;28.15;;;17.55;;
21175;SDS011;10746;50.178;8.186;2022-08-19T09:34:10;28.60;;;17.77;;
21175;SDS011;10746;50.178;8.186;2022-08-19T09:36:36;23.60;;;15.93;;
21175;SDS011;10746;50.178;8.186;2022-08-19T09:39:04;21.55;;;14.82;;
21175;SDS011;10746;50.178;8.186;2022-08-19T09:41:32;20.10;;;14.07;;
21175;SDS011;10746;50.178;8.186;2022-08-19T09:44:00;18.95;;;13.73;;
21175;SDS011;10746;50.178;8.186;2022-08-19T09:46:27;19.38;;;14.13;;
21175;SDS011;10746;50.178;8.186;2022-08-19T09:48:57;16.65;;;13.23;;
21175;SDS011;10746;50.178;8.186;2022-08-19T09:51:25;21.75;;;13.93;;
21175;SDS011;10746;50.178;8.186;2022-08-19T09:53:53;23.05;;;12.90;;
21175;SDS011;10746;50.178;8.186;2022-08-19T09:56:21;22.75;;;14.25;;
21175;SDS011;10746;50.178;8.186;2022-08-19T09:58:48;14.23;;;10.95;;
21175;SDS011;10746;50.178;8.186;2022-08-19T10:01:17;14.85;;;11.50;;
21175;SDS011;10746;50.178;8.186;2022-08-19T10:03:46;16.20;;;9.60;;
21175;SDS011;10746;50.178;8.186;2022-08-19T10:06:14;13.35;;;9.50;;
21175;SDS011;10746;50.178;8.186;2022-08-19T10:08:41;13.13;;;9.25;;
21175;SDS011;10746;50.178;8.186;2022-08-19T10:11:08;12.45;;;8.48;;
21175;SDS011;10746;50.178;8.186;2022-08-19T10:13:36;10.00;;;7.20;;
21175;SDS011;10746;50.178;8.186;2022-08-19T10:16:04;8.70;;;7.45;;
21175;SDS011;10746;50.178;8.186;2022-08-19T10:18:34;13.93;;;9.52;;
21175;SDS011;10746;50.178;8.186;2022-08-19T10:21:03;14.00;;;10.23;;
21175;SDS011;10746;50.178;8.186;2022-08-19T10:23:33;13.40;;;8.85;;
21175;SDS011;10746;50.178;8.186;2022-08-19T10:26:01;12.70;;;10.30;;
21175;SDS011;10746;50.178;8.186;2022-08-19T10:28:31;11.20;;;9.23;;
21175;SDS011;10746;50.178;8.186;2022-08-19T10:30:58;15.52;;;10.68;;
21175;SDS011;10746;50.178;8.186;2022-08-19T10:33:29;14.02;;;10.50;;
21175;SDS011;10746;50.178;8.186;2022-08-19T10:35:59;12.00;;;10.02;;
21175;SDS011;10746;50.178;8.186;2022-08-19T10:38:27;10.70;;;9.50;;
21175;SDS011;10746;50.178;8.186;2022-08-19T10:40:54;13.30;;;8.93;;
21175;SDS011;10746;50.178;8.186;2022-08-19T10:43:21;9.45;;;8.00;;
21175;SDS011;10746;50.178;8.186;2022-08-19T10:45:51;8.23;;;7.18;;
21175;SDS011;10746;50.178;8.186;2022-08-19T10:48:19;12.23;;;8.30;;
21175;SDS011;10746;50.178;8.186;2022-08-19T10:50:46;8.73;;;7.82;;
21175;SDS011;10746;50.178;8.186;2022-08-19T10:53:32;10.15;;;7.70;;
21175;SDS011;10746;50.178;8.186;2022-08-19T10:55:59;7.95;;;6.90;;
21175;SDS011;10746;50.178;8.186;2022-08-19T10:58:46;9.43;;;7.60;;
21175;SDS011;10746;50.178;8.186;2022-08-19T11:01:13;8.90;;;7.60;;
21175;SDS011;10746;50.178;8.186;2022-08-19T11:03:40;8.27;;;7.03;;
21175;SDS011;10746;50.178;8.186;2022-08-19T11:06:07;7.93;;;6.43;;
21175;SDS011;10746;50.178;8.186;2022-08-19T11:08:36;7.38;;;6.38;;
21175;SDS011;10746;50.178;8.186;2022-08-19T11:11:03;7.07;;;6.28;;
21175;SDS011;10746;50.178;8.186;2022-08-19T11:13:33;9.52;;;7.00;;
21175;SDS011;10746;50.178;8.186;2022-08-19T11:16:03;10.23;;;7.00;;
21175;SDS011;10746;50.178;8.186;2022-08-19T11:18:36;9.07;;;6.35;;
21175;SDS011;10746;50.178;8.186;2022-08-19T11:21:08;7.78;;;6.53;;
21175;SDS011;10746;50.178;8.186;2022-08-19T11:23:38;6.95;;;6.05;;
21175;SDS011;10746;50.178;8.186;2022-08-19T11:26:05;7.05;;;5.78;;
21175;SDS011;10746;50.178;8.186;2022-08-19T11:28:32;6.22;;;5.63;;
21175;SDS011;10746;50.178;8.186;2022-08-19T11:30:58;9.13;;;5.95;;
21175;SDS011;10746;50.178;8.186;2022-08-19T11:33:25;6.47;;;5.30;;
21175;SDS011;10746;50.178;8.186;2022-08-19T11:35:52;7.28;;;5.10;;
21175;SDS011;10746;50.178;8.186;2022-08-19T11:38:19;5.15;;;4.65;;
21175;SDS011;10746;50.178;8.186;2022-08-19T11:40:54;5.05;;;4.70;;
21175;SDS011;10746;50.178;8.186;2022-08-19T11:43:22;5.03;;;4.45;;
21175;SDS011;10746;50.178;8.186;2022-08-19T11:45:49;4.90;;;4.45;;
21175;SDS011;10746;50.178;8.186;2022-08-19T11:48:16;6.57;;;4.47;;
21175;SDS011;10746;50.178;8.186;2022-08-19T11:50:47;4.45;;;4.05;;
21175;SDS011;10746;50.178;8.186;2022-08-19T11:53:14;4.15;;;3.85;;
21175;SDS011;10746;50.178;8.186;2022-08-19T11:55:42;4.82;;;3.97;;
21175;SDS011;10746;50.178;8.186;2022-08-19T11:58:11;4.80;;;4.40;;
21175;SDS011;10746;50.178;8.186;2022-08-19T12:00:39;4.75;;;4.20;;
21175;SDS011;10746;50.178;8.186;2022-08-19T12:03:06;6.32;;;4.32;;
21175;SDS011;10746;50.178;8.186;2022-08-19T12:05:33;5.15;;;4.70;;
21175;SDS011;10746;50.178;8.186;2022-08-19T12:08:02;5.10;;;4.65;;
21175;SDS011;10746;50.178;8.186;2022-08-19T12:10:29;5.05;;;3.85;;
21175;SDS011;10746;50.178;8.186;2022-08-19T12:12:56;8.10;;;4.35;;
21175;SDS011;10746;50.178;8.186;2022-08-19T12:15:24;5.75;;;4.18;;
21175;SDS011;10746;50.178;8.186;2022-08-19T12:17:53;5.78;;;3.75;;
21175;SDS011;10746;50.178;8.186;2022-08-19T12:20:22;4.05;;;3.75;;
21175;SDS011;10746;50.178;8.186;2022-08-19T12:22:49;4.45;;;3.83;;
21175;SDS011;10746;50.178;8.186;2022-08-19T12:25:16;4.28;;;3.88;;
21175;SDS011;10746;50.178;8.186;2022-08-19T12:27:43;3.90;;;3.63;;
21175;SDS011;10746;50.178;8.186;2022-08-19T12:30:11;3.45;;;3.22;;
21175;SDS011;10746;50.178;8.186;2022-08-19T12:32:41;4.07;;;3.45;;
21175;SDS011;10746;50.178;8.186;2022-08-19T12:35:08;6.35;;;3.42;;
21175;SDS011;10746;50.178;8.186;2022-08-19T12:37:36;9.00;;;4.05;;
21175;SDS011;10746;50.178;8.186;2022-08-19T12:40:04;3.88;;;3.25;;
21175;SDS011;10746;50.178;8.186;2022-08-19T12:42:31;4.60;;;3.80;;
21175;SDS011;10746;50.178;8.186;2022-08-19T12:44:58;4.18;;;3.80;;
21175;SDS011;10746;50.178;8.186;2022-08-19T12:47:25;4.03;;;3.72;;
21175;SDS011;10746;50.178;8.186;2022-08-19T12:49:53;6.32;;;3.85;;
21175;SDS011;10746;50.178;8.186;2022-08-19T12:52:20;4.20;;;3.90;;
21175;SDS011;10746;50.178;8.186;2022-08-19T12:54:47;4.38;;;3.97;;
21175;SDS011;10746;50.178;8.186;2022-08-19T12:57:14;3.83;;;3.58;;
21175;SDS011;10746;50.178;8.186;2022-08-19T12:59:41;5.82;;;3.50;;
21175;SDS011;10746;50.178;8.186;2022-08-19T13:02:11;3.90;;;3.60;;
21175;SDS011;10746;50.178;8.186;2022-08-19T13:04:38;4.72;;;4.32;;
21175;SDS011;10746;50.178;8.186;2022-08-19T13:07:07;5.50;;;4.88;;
21175;SDS011;10746;50.178;8.186;2022-08-19T13:09:34;6.57;;;4.80;;
21175;SDS011;10746;50.178;8.186;2022-08-19T13:12:01;5.45;;;4.95;;
21175;SDS011;10746;50.178;8.186;2022-08-19T13:14:32;7.95;;;5.10;;
21175;SDS011;10746;50.178;8.186;2022-08-19T13:16:59;5.30;;;4.68;;
21175;SDS011;10746;50.178;8.186;2022-08-19T13:19:26;5.75;;;5.28;;
21175;SDS011;10746;50.178;8.186;2022-08-19T13:21:53;5.13;;;4.70;;
21175;SDS011;10746;50.178;8.186;2022-08-19T13:24:21;8.07;;;6.15;;
21175;SDS011;10746;50.178;8.186;2022-08-19T13:26:48;8.07;;;6.60;;
21175;SDS011;10746;50.178;8.186;2022-08-19T13:29:15;29.20;;;7.35;;
21175;SDS011;10746;50.178;8.186;2022-08-19T13:31:59;6.10;;;5.60;;
21175;SDS011;10746;50.178;8.186;2022-08-19T13:34:43;8.57;;;5.75;;
21175;SDS011;10746;50.178;8.186;2022-08-19T13:37:11;8.38;;;5.85;;
21175;SDS011;10746;50.178;8.186;2022-08-19T13:39:39;6.90;;;5.93;;
21175;SDS011;10746;50.178;8.186;2022-08-19T13:42:06;6.38;;;5.75;;
21175;SDS011;10746;50.178;8.186;2022-08-19T13:44:34;7.32;;;5.35;;
21175;SDS011;10746;50.178;8.186;2022-08-19T13:47:02;6.25;;;5.65;;
21175;SDS011;10746;50.178;8.186;2022-08-19T13:49:31;5.78;;;4.97;;
21175;SDS011;10746;50.178;8.186;2022-08-19T13:51:58;5.13;;;4.63;;
21175;SDS011;10746;50.178;8.186;2022-08-19T13:54:25;5.43;;;4.93;;
21175;SDS011;10746;50.178;8.186;2022-08-19T13:56:54;5.47;;;4.80;;
21175;SDS011;10746;50.178;8.186;2022-08-19T13:59:21;5.55;;;4.90;;
21175;SDS011;10746;50.178;8.186;2022-08-19T14:01:47;6.13;;;5.10;;
21175;SDS011;10746;50.178;8.186;2022-08-19T14:04:14;6.57;;;5.43;;
21175;SDS011;10746;50.178;8.186;2022-08-19T14:06:41;5.90;;;5.35;;
21175;SDS011;10746;50.178;8.186;2022-08-19T14:09:08;7.28;;;5.75;;
21175;SDS011;10746;50.178;8.186;2022-08-19T14:11:34;5.82;;;5.20;;
21175;SDS011;10746;50.178;8.186;2022-08-19T14:14:03;5.35;;;4.90;;
21175;SDS011;10746;50.178;8.186;2022-08-19T14:16:30;7.70;;;4.85;;
21175;SDS011;10746;50.178;8.186;2022-08-19T14:18:57;5.25;;;4.80;;
21175;SDS011;10746;50.178;8.186;2022-08-19T14:21:24;5.60;;;4.65;;
21175;SDS011;10746;50.178;8.186;2022-08-19T14:23:51;6.80;;;4.90;;
21175;SDS011;10746;50.178;8.186;2022-08-19T14:26:18;5.15;;;4.70;;
21175;SDS011;10746;50.178;8.186;2022-08-19T14:28:46;6.00;;;4.53;;
21175;SDS011;10746;50.178;8.186;2022-08-19T14:31:16;6.65;;;5.07;;
21175;SDS011;10746;50.178;8.186;2022-08-19T14:33:44;5.50;;;4.65;;
21175;SDS011;10746;50.178;8.186;2022-08-19T14:36:12;7.85;;;5.03;;